createdAt,value
2018-06-12T00:02:22.613Z,62.95
2018-06-12T00:04:51.956Z,63.56
2018-06-12T00:07:21.298Z,62.70
2018-06-12T00:09:50.797Z,63.50
2018-06-12T00:12:20.063Z,62.87
2018-06-12T00:14:49.341Z,62.97
2018-06-12T00:17:18.672Z,62.11
2018-06-12T00:19:47.916Z,62.82
2018-06-12T00:22:17.522Z,62.76
2018-06-12T00:24:47.036Z,62.63
2018-06-12T00:27:16.244Z,62.80
2018-06-12T00:29:45.530Z,62.43
2018-06-12T00:32:15.283Z,62.58
2018-06-12T00:34:45.368Z,62.86
2018-06-12T00:37:14.916Z,62.72
2018-06-12T00:39:44.177Z,63.51
2018-06-12T00:42:13.412Z,62.80
2018-06-12T00:44:42.707Z,63.49
2018-06-12T00:47:12.208Z,62.36
2018-06-12T00:49:41.554Z,62.98
2018-06-12T00:52:10.976Z,62.70
2018-06-12T00:54:40.490Z,63.02
2018-06-12T00:57:10.293Z,63.26
2018-06-12T00:59:39.693Z,63.70
2018-06-12T01:02:09.004Z,63.50
2018-06-12T01:04:38.698Z,62.88
2018-06-12T01:07:08.288Z,63.32
2018-06-12T01:09:37.769Z,63.41
2018-06-12T01:12:07.463Z,63.35
2018-06-12T01:14:37.130Z,64.20
2018-06-12T01:17:06.745Z,63.77
2018-06-12T01:19:36.291Z,63.87
2018-06-12T01:22:05.853Z,63.65
2018-06-12T01:24:35.540Z,63.96
2018-06-12T01:27:04.964Z,63.88
2018-06-12T01:29:34.847Z,63.89
2018-06-12T01:32:04.980Z,64.57
2018-06-12T01:34:34.803Z,64.32
2018-06-12T01:37:04.872Z,63.88
2018-06-12T01:39:34.538Z,64.11
2018-06-12T01:42:04.506Z,63.71
2018-06-12T01:44:34.253Z,63.82
2018-06-12T01:47:04.287Z,64.25
2018-06-12T01:49:34.401Z,64.56
2018-06-12T01:52:04.011Z,64.03
2018-06-12T01:54:33.598Z,64.20
2018-06-12T01:57:03.611Z,64.20
2018-06-12T01:59:33.628Z,64.89
2018-06-12T02:02:03.748Z,64.46
2018-06-12T02:04:33.684Z,64.21
2018-06-12T02:07:03.071Z,64.28
2018-06-12T02:09:33.758Z,65.22
2018-06-12T02:12:03.648Z,64.78
2018-06-12T02:14:33.781Z,64.64
2018-06-12T02:17:03.929Z,65.34
2018-06-12T02:19:33.443Z,64.78
2018-06-12T02:22:03.260Z,65.37
2018-06-12T02:24:32.781Z,65.46
2018-06-12T02:27:02.339Z,65.29
2018-06-12T02:29:32.063Z,65.65
2018-06-12T02:32:01.969Z,65.25
2018-06-12T02:34:31.377Z,65.70
2018-06-12T02:37:00.895Z,65.89
2018-06-12T02:39:30.674Z,65.32
2018-06-12T02:42:00.239Z,65.72
2018-06-12T02:44:30.894Z,65.51
2018-06-12T02:47:00.461Z,66.13
2018-06-12T02:49:30.140Z,66.54
2018-06-12T02:51:59.979Z,65.67
2018-06-12T02:54:30.072Z,65.89
2018-06-12T02:56:59.904Z,66.03
2018-06-12T02:59:30.082Z,65.97
2018-06-12T03:02:01.140Z,65.41
2018-06-12T03:04:30.472Z,65.61
2018-06-12T03:06:59.954Z,65.32
2018-06-12T03:09:29.492Z,65.95
2018-06-12T03:11:59.404Z,65.71
2018-06-12T03:14:29.322Z,65.68
2018-06-12T03:16:59.097Z,65.60
2018-06-12T03:19:29.019Z,65.48
2018-06-12T03:21:58.724Z,65.40
2018-06-12T03:24:28.873Z,65.43
2018-06-12T03:26:59.082Z,65.59
2018-06-12T03:29:28.570Z,66.09
2018-06-12T03:31:58.506Z,66.05
2018-06-12T03:34:28.197Z,65.95
2018-06-12T03:36:57.905Z,65.80
2018-06-12T03:39:27.809Z,66.29
2018-06-12T03:41:57.557Z,64.83
2018-06-12T03:44:27.117Z,64.59
2018-06-12T03:46:57.032Z,64.72
2018-06-12T03:49:26.972Z,65.19
2018-06-12T03:51:57.193Z,65.12
2018-06-12T03:54:26.875Z,65.26
2018-06-12T03:56:57.094Z,65.09
2018-06-12T03:59:26.689Z,65.22
2018-06-12T04:01:56.231Z,65.36
2018-06-12T04:04:25.520Z,64.75
2018-06-12T04:06:55.248Z,65.01
2018-06-12T04:09:24.527Z,65.51
2018-06-12T04:11:53.945Z,65.32
2018-06-12T04:14:23.301Z,65.56
2018-06-12T04:16:52.532Z,65.83
2018-06-12T04:19:21.970Z,64.87
2018-06-12T04:21:51.318Z,65.08
2018-06-12T04:24:20.781Z,64.20
2018-06-12T04:26:50.059Z,63.89
2018-06-12T04:29:19.609Z,64.43
2018-06-12T04:31:48.916Z,63.94
2018-06-12T04:34:18.331Z,64.18
2018-06-12T04:36:47.658Z,64.02
2018-06-12T04:39:16.959Z,63.23
2018-06-12T04:41:46.245Z,63.84
2018-06-12T04:44:15.727Z,63.46
2018-06-12T04:46:44.964Z,63.69
2018-06-12T04:49:14.327Z,63.16
2018-06-12T04:51:43.627Z,62.61
2018-06-12T04:54:12.928Z,63.03
2018-06-12T04:56:42.177Z,62.37
2018-06-12T04:59:11.468Z,62.52
2018-06-12T05:01:40.830Z,62.60
2018-06-12T05:04:10.440Z,62.34
2018-06-12T05:06:39.818Z,62.84
2018-06-12T05:09:09.209Z,62.95
2018-06-12T05:11:38.948Z,62.90
2018-06-12T05:14:08.570Z,62.80
2018-06-12T05:16:37.959Z,62.94
2018-06-12T05:19:07.473Z,62.92
2018-06-12T05:21:37.360Z,62.83
2018-06-12T05:24:07.803Z,63.49
2018-06-12T05:26:37.395Z,62.77
2018-06-12T05:29:06.665Z,63.26
2018-06-12T05:31:36.221Z,62.57
2018-06-12T05:34:05.771Z,62.75
2018-06-12T05:36:35.948Z,62.56
2018-06-12T05:39:10.196Z,62.70
2018-06-12T05:41:40.416Z,63.07
2018-06-12T05:44:09.710Z,63.26
2018-06-12T05:46:39.086Z,64.00
2018-06-12T05:49:09.048Z,63.46
2018-06-12T05:51:38.553Z,62.99
2018-06-12T05:54:08.399Z,63.70
2018-06-12T05:56:37.938Z,62.94
2018-06-12T05:59:07.436Z,62.69
2018-06-12T06:01:37.004Z,62.66
2018-06-12T06:04:07.573Z,62.19
2018-06-12T06:06:37.284Z,62.33
2018-06-12T06:09:09.199Z,63.07
2018-06-12T06:11:38.865Z,63.27
2018-06-12T06:14:08.451Z,63.12
2018-06-12T06:16:37.962Z,63.41
2018-06-12T06:19:07.529Z,63.02
2018-06-12T06:21:37.458Z,63.24
2018-06-12T06:24:07.314Z,62.95
2018-06-12T06:26:36.910Z,62.06
2018-06-12T06:29:06.644Z,62.49
2018-06-12T06:31:36.968Z,62.27
2018-06-12T06:34:06.810Z,62.31
2018-06-12T06:36:36.594Z,62.49
2018-06-12T06:39:08.170Z,62.69
2018-06-12T06:41:37.856Z,63.62
2018-06-12T06:44:07.947Z,63.44
2018-06-12T06:46:37.847Z,63.50
2018-06-12T06:49:07.413Z,63.35
2018-06-12T06:51:36.876Z,63.13
2018-06-12T06:54:06.433Z,63.14
2018-06-12T06:56:35.841Z,62.86
2018-06-12T06:59:05.356Z,63.19
2018-06-12T07:01:34.860Z,63.87
2018-06-12T07:04:04.403Z,62.97
2018-06-12T07:06:38.162Z,61.68
2018-06-12T07:09:08.521Z,61.43
2018-06-12T07:11:37.841Z,60.75
2018-06-12T07:14:07.514Z,60.98
2018-06-12T07:16:37.658Z,61.23
2018-06-12T07:19:07.277Z,60.50
2018-06-12T07:21:37.819Z,60.08
2018-06-12T07:24:07.529Z,59.99
2018-06-12T07:26:37.125Z,59.76
2018-06-12T07:29:06.819Z,59.49
2018-06-12T07:31:36.708Z,59.69
2018-06-12T07:34:06.349Z,59.41
2018-06-12T07:36:36.200Z,59.30
2018-06-12T07:39:08.938Z,59.41
2018-06-12T07:41:38.894Z,59.13
2018-06-12T07:44:09.381Z,59.22
2018-06-12T07:46:39.169Z,59.59
2018-06-12T07:49:08.957Z,59.67
2018-06-12T07:51:38.571Z,59.11
2018-06-12T07:54:09.413Z,59.26
2018-06-12T07:56:39.240Z,58.88
2018-06-12T07:59:08.894Z,59.67
2018-06-12T08:01:39.401Z,59.00
2018-06-12T08:04:11.511Z,58.58
2018-06-12T08:06:41.103Z,58.75
2018-06-12T08:09:10.644Z,58.33
2018-06-12T08:11:40.038Z,58.10
2018-06-12T08:14:09.386Z,57.78
2018-06-12T08:16:38.686Z,57.91
2018-06-12T08:19:08.017Z,57.41
2018-06-12T08:21:38.351Z,57.87
2018-06-12T08:24:07.878Z,58.13
2018-06-12T08:26:37.794Z,58.35
2018-06-12T08:29:08.221Z,57.98
2018-06-12T08:31:38.077Z,58.32
2018-06-12T08:34:08.415Z,58.04
2018-06-12T08:36:38.600Z,58.03
2018-06-12T08:39:09.123Z,57.54
2018-06-12T08:41:38.611Z,57.67
2018-06-12T08:44:08.768Z,57.27
2018-06-12T08:46:38.479Z,58.16
2018-06-12T08:49:08.112Z,57.67
2018-06-12T08:51:38.005Z,57.36
2018-06-12T08:54:07.991Z,57.88
2018-06-12T08:56:37.861Z,57.74
2018-06-12T08:59:08.625Z,57.58
2018-06-12T09:01:38.274Z,57.71
2018-06-12T09:04:08.610Z,57.66
2018-06-12T09:06:38.953Z,57.22
2018-06-12T09:09:09.698Z,57.33
2018-06-12T09:11:39.703Z,57.42
2018-06-12T09:14:09.573Z,57.00
2018-06-12T09:16:39.311Z,56.05
2018-06-12T09:19:09.554Z,56.48
2018-06-12T09:21:40.211Z,56.63
2018-06-12T09:24:09.840Z,57.19
2018-06-12T09:26:39.784Z,57.22
2018-06-12T09:29:10.324Z,57.00
2018-06-12T09:31:40.219Z,56.92
2018-06-12T09:34:09.963Z,57.13
2018-06-12T09:36:39.462Z,56.73
2018-06-12T09:39:11.687Z,56.39
2018-06-12T09:41:41.025Z,56.06
2018-06-12T09:44:10.305Z,56.37
2018-06-12T09:46:40.165Z,56.37
2018-06-12T09:49:09.487Z,56.37
2018-06-12T09:51:38.860Z,56.23
2018-06-12T09:54:08.579Z,57.20
2018-06-12T09:56:37.952Z,57.88
2018-06-12T09:59:07.574Z,59.04
2018-06-12T10:01:37.322Z,59.82
2018-06-12T10:04:07.101Z,60.70
2018-06-12T10:06:36.599Z,60.56
2018-06-12T10:09:07.928Z,60.54
2018-06-12T10:11:38.798Z,60.47
2018-06-12T10:14:08.688Z,59.78
2018-06-12T10:16:38.665Z,59.62
2018-06-12T10:19:08.260Z,60.10
2018-06-12T10:21:39.661Z,59.85
2018-06-12T10:24:09.925Z,59.71
2018-06-12T10:26:40.174Z,59.83
2018-06-12T10:29:09.865Z,59.25
2018-06-12T10:31:39.826Z,58.41
2018-06-12T10:34:09.042Z,57.90
2018-06-12T10:36:38.896Z,57.80
2018-06-12T10:39:09.132Z,58.46
2018-06-12T10:41:39.418Z,58.57
2018-06-12T10:44:09.533Z,58.29
2018-06-12T10:46:39.367Z,57.72
2018-06-12T10:49:09.237Z,57.98
2018-06-12T10:51:39.244Z,56.76
2018-06-12T10:54:09.251Z,55.76
2018-06-12T10:56:39.194Z,54.99
2018-06-12T10:59:08.438Z,53.87
2018-06-12T11:01:38.306Z,54.52
2018-06-12T11:04:07.985Z,54.44
2018-06-12T11:06:37.617Z,55.07
2018-06-12T11:09:07.721Z,55.58
2018-06-12T11:11:37.492Z,56.05
2018-06-12T11:14:07.067Z,55.28
2018-06-12T11:16:36.320Z,55.97
2018-06-12T11:19:06.086Z,55.42
2018-06-12T11:21:35.403Z,55.36
2018-06-12T11:24:05.242Z,54.55
2018-06-12T11:26:35.241Z,53.92
2018-06-12T11:29:05.227Z,54.23
2018-06-12T11:31:35.053Z,55.37
2018-06-12T11:34:05.277Z,55.17
2018-06-12T11:36:36.625Z,55.77
2018-06-12T11:39:08.146Z,56.30
2018-06-12T11:41:37.880Z,56.11
2018-06-12T11:44:07.925Z,56.16
2018-06-12T11:46:37.312Z,54.76
2018-06-12T11:49:07.400Z,53.65
2018-06-12T11:51:36.685Z,52.58
2018-06-12T11:54:06.962Z,51.42
2018-06-12T11:56:36.916Z,52.15
2018-06-12T11:59:06.305Z,52.52
2018-06-12T12:01:35.864Z,52.73
2018-06-12T12:04:05.785Z,52.62
2018-06-12T12:06:35.666Z,52.45
2018-06-12T12:09:08.033Z,50.84
2018-06-12T12:11:38.151Z,51.55
2018-06-12T12:14:07.601Z,50.64
2018-06-12T12:16:37.385Z,49.82
2018-06-12T12:19:07.286Z,50.49
2018-06-12T12:21:36.715Z,50.85
2018-06-12T12:24:06.425Z,50.70
2018-06-12T12:26:35.954Z,51.54
2018-06-12T12:29:06.466Z,52.32
2018-06-12T12:31:35.957Z,53.27
2018-06-12T12:34:05.806Z,53.00
2018-06-12T12:36:35.568Z,53.56
2018-06-12T12:39:07.400Z,54.52
2018-06-12T12:41:37.405Z,55.28
2018-06-12T12:44:06.977Z,55.18
2018-06-12T12:46:36.891Z,54.63
2018-06-12T12:49:06.368Z,55.23
2018-06-12T12:51:36.358Z,54.88
2018-06-12T12:54:06.398Z,53.69
2018-06-12T12:56:36.627Z,53.73
2018-06-12T12:59:06.428Z,53.39
2018-06-12T13:01:36.194Z,54.22
2018-06-12T13:04:06.161Z,54.15
2018-06-12T13:06:35.743Z,54.26
2018-06-12T13:09:07.927Z,53.47
2018-06-12T13:11:37.582Z,53.89
2018-06-12T13:14:06.985Z,53.83
2018-06-12T13:16:38.163Z,54.06
2018-06-12T13:19:07.533Z,56.56
2018-06-12T13:21:37.021Z,56.97
2018-06-12T13:24:06.629Z,56.96
2018-06-12T13:26:36.275Z,56.38
2018-06-12T13:29:06.252Z,55.47
2018-06-12T13:31:36.351Z,55.22
2018-06-12T13:34:06.060Z,55.99
2018-06-12T13:36:35.666Z,55.19
2018-06-12T13:39:06.502Z,53.78
2018-06-12T13:41:36.622Z,54.10
2018-06-12T13:44:06.870Z,54.74
2018-06-12T13:46:36.784Z,54.73
2018-06-12T13:49:06.372Z,56.44
2018-06-12T13:51:36.386Z,56.95
2018-06-12T13:54:06.089Z,57.42
2018-06-12T13:56:36.349Z,56.48
2018-06-12T13:59:06.483Z,56.67
2018-06-12T14:01:36.151Z,56.48
2018-06-12T14:04:06.739Z,55.94
2018-06-12T14:06:36.596Z,55.60
2018-06-12T14:09:08.369Z,55.73
2018-06-12T14:11:38.428Z,55.09
2018-06-12T14:14:08.382Z,54.51
2018-06-12T14:16:39.133Z,54.71
2018-06-12T14:19:09.236Z,55.43
2018-06-12T14:21:39.013Z,54.48
2018-06-12T14:24:10.961Z,55.80
2018-06-12T14:26:41.077Z,56.18
2018-06-12T14:29:10.990Z,55.15
2018-06-12T14:31:41.480Z,55.07
2018-06-12T14:34:15.630Z,55.75
2018-06-12T14:36:51.594Z,56.57
2018-06-12T14:39:25.000Z,56.51
2018-06-12T14:42:19.278Z,56.84
2018-06-12T14:45:04.108Z,56.57
2018-06-12T14:47:46.050Z,57.22
2018-06-12T14:50:17.172Z,56.39
2018-06-12T14:52:47.225Z,56.72
2018-06-12T14:55:16.983Z,56.15
2018-06-12T14:57:51.229Z,56.05
2018-06-12T15:00:21.519Z,55.74
2018-06-12T15:02:55.344Z,56.80
2018-06-12T15:05:25.012Z,56.29
2018-06-12T15:07:55.457Z,56.92
2018-06-12T15:10:25.057Z,56.45
2018-06-12T15:12:54.706Z,56.53
2018-06-12T15:15:24.048Z,57.73
2018-06-12T15:17:53.663Z,57.58
2018-06-12T15:20:22.961Z,57.30
2018-06-12T15:22:52.385Z,57.84
2018-06-12T15:25:22.207Z,57.81
2018-06-12T15:27:51.403Z,57.64
2018-06-12T15:30:20.830Z,55.66
2018-06-12T15:32:50.695Z,55.81
2018-06-12T15:35:19.919Z,56.18
2018-06-12T15:37:49.296Z,56.13
2018-06-12T15:40:18.694Z,57.22
2018-06-12T15:42:48.111Z,56.71
2018-06-12T15:45:17.458Z,57.39
2018-06-12T15:47:47.129Z,57.22
2018-06-12T15:50:16.728Z,57.57
2018-06-12T15:52:46.132Z,57.41
2018-06-12T15:55:15.933Z,57.91
2018-06-12T15:57:45.347Z,57.71
2018-06-12T16:00:14.974Z,58.45
2018-06-12T16:02:44.879Z,58.46
2018-06-12T16:05:15.593Z,58.93
2018-06-12T16:07:45.012Z,58.23
2018-06-12T16:10:14.499Z,58.71
2018-06-12T16:12:44.213Z,59.21
2018-06-12T16:15:13.973Z,59.73
2018-06-12T16:17:43.392Z,60.12
2018-06-12T16:20:14.183Z,59.96
2018-06-12T16:22:43.801Z,60.36
2018-06-12T16:25:14.241Z,59.59
2018-06-12T16:27:48.228Z,59.25
2018-06-12T16:30:17.637Z,59.42
2018-06-12T16:32:46.961Z,59.57
2018-06-12T16:35:16.465Z,59.69
2018-06-12T16:37:45.870Z,61.02
2018-06-12T16:40:15.991Z,61.31
2018-06-12T16:42:45.492Z,61.66
2018-06-12T16:45:14.985Z,61.88
2018-06-12T16:47:44.552Z,62.22
2018-06-12T16:50:14.372Z,62.42
2018-06-12T16:52:43.978Z,63.07
2018-06-12T16:55:13.512Z,63.12
2018-06-12T16:57:45.357Z,63.67
2018-06-12T17:00:14.878Z,63.31
2018-06-12T17:02:44.204Z,63.37
2018-06-12T17:05:14.878Z,63.10
2018-06-12T17:07:44.491Z,63.26
2018-06-12T17:10:13.900Z,63.11
2018-06-12T17:12:43.836Z,62.83
2018-06-12T17:15:13.216Z,63.20
2018-06-12T17:17:42.571Z,63.56
2018-06-12T17:20:12.123Z,63.94
2018-06-12T17:22:41.942Z,63.68
2018-06-12T17:25:11.507Z,63.88
2018-06-12T17:27:41.452Z,63.23
2018-06-12T17:30:10.877Z,63.55
2018-06-12T17:32:40.609Z,63.83
2018-06-12T17:35:10.611Z,63.45
2018-06-12T17:37:40.054Z,63.48
2018-06-12T17:40:09.494Z,63.28
2018-06-12T17:42:39.222Z,63.40
2018-06-12T17:45:08.876Z,62.82
2018-06-12T17:47:38.311Z,63.01
2018-06-12T17:50:08.582Z,62.60
2018-06-12T17:52:38.239Z,62.41
2018-06-12T17:55:08.019Z,62.31
2018-06-12T17:57:37.978Z,62.81
2018-06-12T18:00:07.515Z,62.85
2018-06-12T18:02:37.177Z,63.48
2018-06-12T18:05:07.124Z,63.80
2018-06-12T18:07:36.678Z,63.95
2018-06-12T18:10:06.319Z,63.93
2018-06-12T18:12:36.588Z,63.90
2018-06-12T18:15:07.820Z,63.88
2018-06-12T18:17:38.058Z,63.53
2018-06-12T18:20:07.728Z,63.99
2018-06-12T18:22:37.560Z,64.44
2018-06-12T18:25:07.777Z,64.92
2018-06-12T18:27:37.418Z,64.27
2018-06-12T18:30:07.276Z,64.83
2018-06-12T18:32:37.004Z,65.03
2018-06-12T18:35:06.456Z,64.66
2018-06-12T18:37:36.430Z,65.00
2018-06-12T18:40:06.288Z,65.02
2018-06-12T18:42:36.342Z,64.87
2018-06-12T18:45:07.282Z,65.10
2018-06-12T18:47:37.029Z,65.02
2018-06-12T18:50:06.915Z,65.63
2018-06-12T18:52:37.322Z,66.10
2018-06-12T18:55:06.974Z,66.46
2018-06-12T18:57:36.751Z,67.63
2018-06-12T19:00:06.571Z,68.22
2018-06-12T19:02:36.237Z,68.97
2018-06-12T19:05:05.882Z,69.76
2018-06-12T19:07:35.792Z,69.61
2018-06-12T19:10:05.694Z,69.60
2018-06-12T19:12:35.001Z,69.55
2018-06-12T19:15:04.524Z,70.44
2018-06-12T19:17:33.871Z,69.94
2018-06-12T19:20:03.486Z,70.48
2018-06-12T19:22:33.075Z,69.89
2018-06-12T19:25:02.658Z,69.89
2018-06-12T19:27:32.145Z,70.07
2018-06-12T19:30:01.751Z,70.77
2018-06-12T19:32:31.184Z,70.29
2018-06-12T19:35:00.885Z,70.42
2018-06-12T19:37:30.598Z,70.28
2018-06-12T19:40:00.204Z,70.97
2018-06-12T19:42:29.930Z,70.54
2018-06-12T19:44:59.754Z,71.16
2018-06-12T19:47:29.259Z,70.73
2018-06-12T19:49:59.023Z,70.72
2018-06-12T19:52:28.848Z,70.91
2018-06-12T19:54:59.129Z,70.68
2018-06-12T19:57:29.348Z,70.58
2018-06-12T19:59:59.389Z,70.82
2018-06-12T20:02:29.371Z,70.80
2018-06-12T20:04:59.605Z,70.56
2018-06-12T20:07:29.463Z,70.82
2018-06-12T20:09:59.364Z,71.15
2018-06-12T20:12:29.803Z,71.04
2018-06-12T20:14:59.393Z,71.45
2018-06-12T20:17:30.091Z,71.84
2018-06-12T20:20:01.725Z,71.50
2018-06-12T20:22:32.534Z,71.00
2018-06-12T20:25:02.453Z,72.19
2018-06-12T20:27:33.393Z,72.33
2018-06-12T20:30:04.224Z,73.13
2018-06-12T20:32:34.421Z,72.76
2018-06-12T20:35:04.714Z,72.33
2018-06-12T20:37:34.914Z,72.36
2018-06-12T20:40:04.791Z,72.27
2018-06-12T20:42:36.241Z,72.23
2018-06-12T20:45:06.362Z,72.37
2018-06-12T20:47:36.400Z,71.57
2018-06-12T20:50:06.181Z,72.31
2018-06-12T20:52:35.661Z,72.46
2018-06-12T20:55:05.309Z,72.97
2018-06-12T20:57:35.187Z,73.20
2018-06-12T21:00:05.412Z,73.68
2018-06-12T21:02:35.075Z,73.98
2018-06-12T21:05:04.569Z,73.57
2018-06-12T21:07:34.616Z,74.01
2018-06-12T21:10:04.477Z,73.84
2018-06-12T21:12:34.220Z,74.44
2018-06-12T21:15:04.029Z,74.14
2018-06-12T21:17:33.777Z,74.18
2018-06-12T21:20:03.729Z,74.34
2018-06-12T21:22:33.680Z,74.59
2018-06-12T21:25:03.650Z,74.89
2018-06-12T21:27:33.992Z,75.11
2018-06-12T21:30:04.015Z,74.96
2018-06-12T21:32:37.497Z,75.21
2018-06-12T21:35:07.953Z,75.37
2018-06-12T21:37:37.869Z,75.53
2018-06-12T21:40:07.654Z,76.23
2018-06-12T21:42:38.522Z,75.37
2018-06-12T21:45:08.465Z,76.00
2018-06-12T21:47:38.582Z,75.55
2018-06-12T21:50:08.597Z,76.82
2018-06-12T21:52:38.601Z,76.86
2018-06-12T21:55:08.179Z,77.40
2018-06-12T21:57:37.931Z,77.04
2018-06-12T22:00:08.250Z,77.44
2018-06-12T22:02:37.633Z,76.89
2018-06-12T22:05:07.018Z,77.70
2018-06-12T22:07:36.419Z,78.47
2018-06-12T22:10:06.355Z,77.70
2018-06-12T22:12:35.764Z,77.65
2018-06-12T22:15:05.060Z,78.24
2018-06-12T22:17:39.001Z,77.99
2018-06-12T22:20:08.233Z,78.13
2018-06-12T22:22:37.486Z,78.56
2018-06-12T22:25:06.974Z,78.87
2018-06-12T22:27:36.503Z,79.84
2018-06-12T22:30:06.173Z,80.17
2018-06-12T22:32:35.898Z,80.54
2018-06-12T22:35:05.401Z,80.69
2018-06-12T22:37:34.649Z,80.68
2018-06-12T22:40:04.208Z,81.50
2018-06-12T22:42:33.581Z,81.11
2018-06-12T22:45:02.979Z,80.90
2018-06-12T22:47:32.541Z,81.21
2018-06-12T22:50:02.157Z,81.53
2018-06-12T22:52:31.602Z,82.16
2018-06-12T22:55:02.127Z,82.59
2018-06-12T22:57:31.647Z,82.21
2018-06-12T23:00:01.316Z,83.09
2018-06-12T23:02:31.236Z,82.60
2018-06-12T23:05:00.762Z,83.55
2018-06-12T23:07:30.677Z,82.94
2018-06-12T23:10:00.630Z,84.11
2018-06-12T23:12:30.430Z,83.72
2018-06-12T23:15:00.404Z,84.52
2018-06-12T23:17:30.497Z,83.70
2018-06-12T23:21:10.683Z,84.05
2018-06-12T23:23:40.658Z,84.70
2018-06-12T23:26:10.182Z,84.78
2018-06-12T23:28:39.598Z,84.72
2018-06-12T23:31:09.691Z,85.05
2018-06-12T23:33:39.361Z,85.58
2018-06-12T23:36:08.866Z,85.11
2018-06-12T23:38:38.787Z,84.91
2018-06-12T23:41:08.792Z,85.70
2018-06-12T23:43:38.521Z,85.70
2018-06-12T23:46:08.166Z,85.83
2018-06-12T23:48:38.461Z,86.07
2018-06-12T23:51:08.757Z,86.60
2018-06-12T23:53:38.841Z,86.89
2018-06-12T23:56:08.585Z,86.41
2018-06-12T23:58:38.090Z,86.25
